createdAt,value
2018-11-05T00:00:39.500Z,18.33
2018-11-05T00:03:11.949Z,19.23
2018-11-05T00:05:41.972Z,20.17
2018-11-05T00:08:12.211Z,22.03
2018-11-05T00:10:44.397Z,21.50
2018-11-05T00:13:14.534Z,19.90
2018-11-05T00:15:45.680Z,19.60
2018-11-05T00:18:15.722Z,19.40
2018-11-05T00:20:45.791Z,18.40
2018-11-05T00:23:16.193Z,18.97
2018-11-05T00:25:46.243Z,20.37
2018-11-05T00:28:16.275Z,20.50
2018-11-05T00:30:46.451Z,19.50
2018-11-05T00:33:18.748Z,21.60
2018-11-05T00:35:48.831Z,20.47
2018-11-05T00:38:20.062Z,21.53
2018-11-05T00:40:50.133Z,23.50
2018-11-05T00:43:20.166Z,25.03
2018-11-05T00:45:50.499Z,24.07
2018-11-05T00:48:20.543Z,21.63
2018-11-05T00:50:50.677Z,23.30
2018-11-05T00:53:20.856Z,23.93
2018-11-05T00:55:50.858Z,21.77
2018-11-05T00:58:20.910Z,24.03
2018-11-05T01:00:51.062Z,22.33
2018-11-05T01:03:23.921Z,21.13
2018-11-05T01:05:54.050Z,22.47
2018-11-05T01:08:24.214Z,22.40
2018-11-05T01:10:54.305Z,22.27
2018-11-05T01:13:26.954Z,22.63
2018-11-05T01:15:57.068Z,25.27
2018-11-05T01:18:27.092Z,24.30
2018-11-05T01:20:58.150Z,26.20
2018-11-05T01:23:28.277Z,25.07
2018-11-05T01:25:58.296Z,24.17
2018-11-05T01:28:29.659Z,25.40
2018-11-05T01:30:58.682Z,24.50
2018-11-05T01:33:28.720Z,22.63
2018-11-05T01:36:01.102Z,24.60
2018-11-05T01:38:31.118Z,25.03
2018-11-05T01:41:00.054Z,25.60
2018-11-05T01:43:30.476Z,22.77
2018-11-05T01:46:00.642Z,21.63
2018-11-05T01:48:30.666Z,20.90
2018-11-05T01:51:04.087Z,20.27
2018-11-05T01:53:38.187Z,20.13
2018-11-05T01:56:07.241Z,21.23
2018-11-05T01:58:37.358Z,19.67
2018-11-05T02:01:07.394Z,20.30
2018-11-05T02:03:38.710Z,18.60
2018-11-05T02:06:08.875Z,19.40
2018-11-05T02:08:39.026Z,20.00
2018-11-05T02:11:09.704Z,19.60
2018-11-05T02:13:48.700Z,21.77
2018-11-05T02:16:20.519Z,20.47
2018-11-05T02:18:53.287Z,21.77
2018-11-05T02:21:23.420Z,19.13
2018-11-05T02:23:57.650Z,19.87
2018-11-05T02:26:27.685Z,19.43
2018-11-05T02:28:57.726Z,20.40
2018-11-05T02:31:29.907Z,18.97
2018-11-05T02:34:00.141Z,19.47
2018-11-05T02:36:30.469Z,23.83
2018-11-05T02:39:03.089Z,19.63
2018-11-05T02:41:33.313Z,18.23
2018-11-05T02:44:03.332Z,18.90
2018-11-05T02:46:33.321Z,19.50
2018-11-05T02:49:03.424Z,19.17
2018-11-05T02:51:33.557Z,18.53
2018-11-05T02:54:04.669Z,19.70
2018-11-05T02:56:34.844Z,22.13
2018-11-05T02:59:04.901Z,24.00
2018-11-05T03:01:35.976Z,22.97
2018-11-05T03:04:12.382Z,21.80
2018-11-05T03:06:42.585Z,22.17
2018-11-05T03:09:14.516Z,24.23
2018-11-05T03:11:46.131Z,22.77
2018-11-05T03:14:16.256Z,23.20
2018-11-05T03:16:45.241Z,26.17
2018-11-05T03:19:15.487Z,24.07
2018-11-05T03:21:45.519Z,23.93
2018-11-05T03:24:17.621Z,25.50
2018-11-05T03:26:48.046Z,26.87
2018-11-05T03:29:20.336Z,24.93
2018-11-05T03:32:05.626Z,31.33
2018-11-05T03:34:42.742Z,46.43
2018-11-05T03:37:11.932Z,31.10
2018-11-05T03:39:44.538Z,27.63
2018-11-05T03:42:14.650Z,28.70
2018-11-05T03:44:44.983Z,29.70
2018-11-05T03:47:20.143Z,27.03
2018-11-05T03:49:50.745Z,25.63
2018-11-05T03:52:23.017Z,27.20
2018-11-05T03:54:53.157Z,41.03
2018-11-05T03:57:25.645Z,26.83
2018-11-05T03:59:55.622Z,29.73
2018-11-05T04:02:28.076Z,26.93
2018-11-05T04:05:03.610Z,24.50
2018-11-05T04:07:33.832Z,35.67
2018-11-05T04:10:03.956Z,40.80
2018-11-05T04:12:34.291Z,28.27
2018-11-05T04:15:04.455Z,29.70
2018-11-05T04:17:36.104Z,27.77
2018-11-05T04:20:09.811Z,52.97
2018-11-05T04:22:40.955Z,26.43
2018-11-05T04:25:09.387Z,46.10
2018-11-05T04:27:39.689Z,35.90
2018-11-05T04:30:12.288Z,27.73
2018-11-05T04:32:42.579Z,26.20
2018-11-05T04:35:12.939Z,25.13
2018-11-05T04:37:42.823Z,26.57
2018-11-05T04:40:12.864Z,32.20
2018-11-05T04:42:46.578Z,31.77
2018-11-05T04:45:15.121Z,29.07
2018-11-05T04:47:45.109Z,28.67
2018-11-05T04:53:09.138Z,26.93
2018-11-05T04:55:39.033Z,28.63
2018-11-05T04:58:08.980Z,28.80
2018-11-05T05:00:38.884Z,33.00
2018-11-05T05:03:08.992Z,41.00
2018-11-05T05:05:39.655Z,39.67
2018-11-05T05:08:09.846Z,38.60
2018-11-05T05:10:39.864Z,37.20
2018-11-05T05:13:10.263Z,36.60
2018-11-05T05:15:40.360Z,37.77
2018-11-05T05:18:10.295Z,34.80
2018-11-05T05:20:40.207Z,36.30
2018-11-05T05:23:10.279Z,38.90
2018-11-05T05:25:40.173Z,34.70
2018-11-05T05:28:11.239Z,35.50
2018-11-05T05:30:41.115Z,35.23
2018-11-05T05:33:11.106Z,30.80
2018-11-05T05:35:40.940Z,37.00
2018-11-05T05:38:10.844Z,32.97
2018-11-05T05:40:40.773Z,39.80
2018-11-05T05:43:11.545Z,31.80
2018-11-05T05:45:41.429Z,36.90
2018-11-05T05:48:11.308Z,30.50
2018-11-05T05:50:41.225Z,38.13
2018-11-05T05:53:11.090Z,28.53
2018-11-05T05:55:41.206Z,39.27
2018-11-05T05:58:11.384Z,43.90
2018-11-05T06:00:41.362Z,42.47
2018-11-05T06:03:11.397Z,36.60
2018-11-05T06:05:41.576Z,38.23
2018-11-05T06:08:11.507Z,43.67
2018-11-05T06:10:41.612Z,28.10
2018-11-05T06:13:11.673Z,30.53
2018-11-05T06:15:41.814Z,24.17
2018-11-05T06:18:11.914Z,23.80
2018-11-05T06:20:42.245Z,22.93
2018-11-05T06:23:12.303Z,23.30
2018-11-05T06:25:42.535Z,27.67
2018-11-05T06:28:13.131Z,23.10
2018-11-05T06:30:43.204Z,24.13
2018-11-05T06:33:13.247Z,21.60
2018-11-05T06:35:45.152Z,23.70
2018-11-05T06:38:15.357Z,22.60
2018-11-05T06:40:45.394Z,21.10
2018-11-05T06:43:15.365Z,21.23
2018-11-05T06:45:45.468Z,22.20
2018-11-05T06:48:15.406Z,20.17
2018-11-05T06:50:48.515Z,18.30
2018-11-05T06:53:18.390Z,20.57
2018-11-05T06:55:48.464Z,22.03
2018-11-05T06:58:18.640Z,20.30
2018-11-05T07:00:48.778Z,21.00
2018-11-05T07:03:18.862Z,19.93
2018-11-05T07:05:48.991Z,19.30
2018-11-05T07:08:19.047Z,21.77
2018-11-05T07:10:49.083Z,20.43
2018-11-05T07:13:19.256Z,21.10
2018-11-05T07:15:49.340Z,19.23
2018-11-05T07:18:19.527Z,27.27
2018-11-05T07:20:51.870Z,24.63
2018-11-05T07:23:22.114Z,18.27
2018-11-05T07:25:52.150Z,17.53
2018-11-05T07:28:23.105Z,16.83
2018-11-05T07:30:53.145Z,16.67
2018-11-05T07:33:23.158Z,18.50
2018-11-05T07:35:53.835Z,17.53
2018-11-05T07:38:23.854Z,18.23
2018-11-05T07:40:53.991Z,17.13
2018-11-05T07:43:24.658Z,16.50
2018-11-05T07:45:54.567Z,16.00
2018-11-05T07:48:24.447Z,13.60
2018-11-05T07:50:54.802Z,14.53
2018-11-05T07:53:24.779Z,14.27
2018-11-05T07:55:54.795Z,13.57
2018-11-05T07:58:27.810Z,12.53
2018-11-05T08:00:58.987Z,13.80
2018-11-05T08:03:30.773Z,14.80
2018-11-05T08:06:00.655Z,14.20
2018-11-05T08:08:30.601Z,15.47
2018-11-05T08:11:00.610Z,14.37
2018-11-05T08:13:30.510Z,16.33
2018-11-05T08:16:00.430Z,14.67
2018-11-05T08:18:30.368Z,17.00
2018-11-05T08:21:00.268Z,16.77
2018-11-05T08:23:30.173Z,15.93
2018-11-05T08:26:00.111Z,13.27
2018-11-05T08:28:29.995Z,13.03
2018-11-05T08:30:59.903Z,12.43
2018-11-05T08:33:30.530Z,13.93
2018-11-05T08:36:00.416Z,14.27
2018-11-05T08:38:30.313Z,15.20
2018-11-05T08:41:00.543Z,14.60
2018-11-05T08:43:30.428Z,15.70
2018-11-05T08:46:00.301Z,14.23
2018-11-05T08:48:30.248Z,15.33
2018-11-05T08:51:00.264Z,14.57
2018-11-05T08:53:30.058Z,16.37
2018-11-05T08:56:00.546Z,14.63
2018-11-05T08:58:30.455Z,13.70
2018-11-05T09:01:19.956Z,14.20
2018-11-05T09:03:51.118Z,14.87
2018-11-05T09:06:21.017Z,13.00
2018-11-05T09:08:50.920Z,12.80
2018-11-05T09:11:21.299Z,13.77
2018-11-05T09:13:52.864Z,15.17
2018-11-05T09:16:22.905Z,14.30
2018-11-05T09:18:52.965Z,14.77
2018-11-05T09:21:23.387Z,14.93
2018-11-05T09:23:53.345Z,16.63
2018-11-05T09:26:23.472Z,15.60
2018-11-05T09:28:53.436Z,14.50
2018-11-05T09:31:23.631Z,15.60
2018-11-05T09:33:53.660Z,16.33
2018-11-05T09:36:24.574Z,15.60
2018-11-05T09:38:54.459Z,13.90
2018-11-05T09:41:24.579Z,13.33
2018-11-05T09:43:54.997Z,15.07
2018-11-05T09:46:25.050Z,14.60
2018-11-05T09:48:55.097Z,14.53
2018-11-05T09:51:26.891Z,16.03
2018-11-05T09:53:57.099Z,16.97
2018-11-05T09:56:27.468Z,15.97
2018-11-05T09:58:57.416Z,20.50
2018-11-05T10:01:27.327Z,12.80
2018-11-05T10:03:58.039Z,14.30
2018-11-05T10:06:28.657Z,12.97
2018-11-05T10:08:58.528Z,11.67
2018-11-05T10:11:28.419Z,13.77
2018-11-05T10:13:58.571Z,13.90
2018-11-05T10:16:28.522Z,12.47
2018-11-05T10:18:58.339Z,11.90
2018-11-05T10:21:29.020Z,13.43
2018-11-05T10:23:58.918Z,12.30
2018-11-05T10:26:28.805Z,12.20
2018-11-05T10:28:58.736Z,10.60
2018-11-05T10:31:29.363Z,12.37
2018-11-05T10:33:59.251Z,11.60
2018-11-05T10:36:30.771Z,11.77
2018-11-05T10:39:00.637Z,11.90
2018-11-05T10:41:30.517Z,12.33
2018-11-05T10:44:00.578Z,12.13
2018-11-05T10:46:30.479Z,11.03
2018-11-05T10:49:00.460Z,13.53
2018-11-05T10:51:31.404Z,13.97
2018-11-05T10:54:01.250Z,10.43
2018-11-05T10:56:31.126Z,11.97
2018-11-05T10:59:01.966Z,12.83
2018-11-05T11:01:49.036Z,11.13
2018-11-05T11:04:35.504Z,10.90
2018-11-05T11:07:05.569Z,11.77
2018-11-05T11:09:35.492Z,10.83
2018-11-05T11:12:06.472Z,11.40
2018-11-05T11:14:36.355Z,11.87
2018-11-05T11:17:06.406Z,12.40
2018-11-05T11:19:37.669Z,10.30
2018-11-05T11:22:07.606Z,10.97
2018-11-05T11:24:37.468Z,11.17
2018-11-05T11:27:09.628Z,11.13
2018-11-05T11:29:39.498Z,11.17
2018-11-05T11:32:09.396Z,11.13
2018-11-05T11:34:40.449Z,19.37
2018-11-05T11:37:10.388Z,18.80
2018-11-05T11:39:40.191Z,11.73
2018-11-05T11:42:10.162Z,14.43
2018-11-05T11:44:40.392Z,17.33
2018-11-05T11:47:10.504Z,18.30
2018-11-05T11:49:40.835Z,12.67
2018-11-05T11:52:10.743Z,16.17
2018-11-05T11:54:40.609Z,11.63
2018-11-05T11:57:10.528Z,17.17
2018-11-05T11:59:40.411Z,12.93
2018-11-05T12:02:17.098Z,14.63
2018-11-05T12:04:46.991Z,13.23
2018-11-05T12:07:16.996Z,13.10
2018-11-05T12:09:46.945Z,12.67
2018-11-05T12:12:17.000Z,14.50
2018-11-05T12:17:17.450Z,26.00
2018-11-05T12:19:47.578Z,13.90
2018-11-05T12:22:17.721Z,14.37
2018-11-05T12:24:47.697Z,14.83
2018-11-05T12:27:17.598Z,14.17
2018-11-05T12:29:48.517Z,16.00
2018-11-05T12:32:18.581Z,16.63
2018-11-05T12:34:48.912Z,12.00
2018-11-05T12:37:20.403Z,13.03
2018-11-05T12:39:50.517Z,9.83
2018-11-05T12:42:20.447Z,8.40
2018-11-05T12:44:50.691Z,8.00
2018-11-05T12:47:20.694Z,8.30
2018-11-05T12:49:50.758Z,7.73
2018-11-05T12:52:20.746Z,12.17
2018-11-05T12:54:50.810Z,12.47
2018-11-05T12:57:21.464Z,8.03
2018-11-05T12:59:51.389Z,8.40
2018-11-05T13:02:24.919Z,6.93
2018-11-05T13:04:58.228Z,8.30
2018-11-05T13:07:28.103Z,7.03
2018-11-05T13:09:57.997Z,6.90
2018-11-05T13:12:28.233Z,11.73
2018-11-05T13:14:58.267Z,7.47
2018-11-05T13:17:28.168Z,7.57
2018-11-05T13:20:00.381Z,9.70
2018-11-05T13:22:30.319Z,10.73
2018-11-05T13:25:00.195Z,9.63
2018-11-05T13:27:30.678Z,7.37
2018-11-05T13:30:00.720Z,7.73
2018-11-05T13:32:30.748Z,7.00
2018-11-05T13:35:00.929Z,8.97
2018-11-05T13:37:31.291Z,10.90
2018-11-05T13:40:01.164Z,12.80
2018-11-05T13:42:32.228Z,10.90
2018-11-05T13:45:02.381Z,10.13
2018-11-05T13:47:33.169Z,9.17
2018-11-05T13:50:03.649Z,9.77
2018-11-05T13:52:33.733Z,10.10
2018-11-05T13:55:03.963Z,7.53
2018-11-05T13:57:34.109Z,8.00
2018-11-05T14:00:04.132Z,7.37
2018-11-05T14:02:33.969Z,8.47
2018-11-05T14:05:04.155Z,8.90
2018-11-05T14:07:34.080Z,8.90
2018-11-05T14:10:04.141Z,9.10
2018-11-05T14:12:34.223Z,7.67
2018-11-05T14:15:04.217Z,15.10
2018-11-05T14:17:34.338Z,8.70
2018-11-05T14:20:05.488Z,8.47
2018-11-05T14:22:35.636Z,9.00
2018-11-05T14:25:05.662Z,9.40
2018-11-05T14:27:36.653Z,9.40
2018-11-05T14:30:07.755Z,20.63
2018-11-05T14:32:37.517Z,9.00
2018-11-05T14:35:08.351Z,9.20
2018-11-05T14:37:38.236Z,9.90
2018-11-05T14:40:09.238Z,12.40
2018-11-05T14:42:39.578Z,9.27
2018-11-05T14:45:17.233Z,8.90
2018-11-05T14:47:48.455Z,7.73
2018-11-05T14:50:19.983Z,12.83
2018-11-05T14:52:49.980Z,10.53
2018-11-05T14:55:20.604Z,9.13
2018-11-05T14:57:51.599Z,9.23
2018-11-05T15:00:25.789Z,10.43
2018-11-05T15:02:56.707Z,11.40
2018-11-05T15:05:26.781Z,10.37
2018-11-05T15:07:57.624Z,11.60
2018-11-05T15:10:27.668Z,12.40
2018-11-05T15:12:57.691Z,10.30
2018-11-05T15:15:28.719Z,21.83
2018-11-05T15:17:58.611Z,12.03
2018-11-05T15:20:28.582Z,8.83
2018-11-05T15:22:58.911Z,14.00
2018-11-05T15:25:29.027Z,12.50
2018-11-05T15:27:59.130Z,12.83
2018-11-05T15:30:29.438Z,10.63
2018-11-05T15:32:59.629Z,10.23
2018-11-05T15:35:29.508Z,12.37
2018-11-05T15:38:00.598Z,11.43
2018-11-05T15:40:30.490Z,7.97
2018-11-05T15:43:00.388Z,9.23
2018-11-05T15:45:31.524Z,7.20
2018-11-05T15:48:01.643Z,8.70
2018-11-05T15:50:31.581Z,9.77
2018-11-05T15:53:02.437Z,7.97
2018-11-05T15:55:31.944Z,8.93
2018-11-05T15:58:01.981Z,9.50
2018-11-05T16:00:32.413Z,11.43
2018-11-05T16:03:02.909Z,10.63
2018-11-05T16:05:33.115Z,13.60
2018-11-05T16:08:03.459Z,9.67
2018-11-05T16:10:33.625Z,12.03
2018-11-05T16:13:03.629Z,13.63
2018-11-05T16:15:33.708Z,14.30
2018-11-05T16:18:03.913Z,18.63
2018-11-05T16:20:33.943Z,21.37
2018-11-05T16:23:04.174Z,17.33
2018-11-05T16:25:34.113Z,27.87
2018-11-05T16:28:03.977Z,22.23
2018-11-05T16:30:33.938Z,45.53
2018-11-05T16:33:03.867Z,28.23
2018-11-05T16:35:33.837Z,15.70
2018-11-05T16:38:05.564Z,18.63
2018-11-05T16:40:35.438Z,19.97
2018-11-05T16:43:05.322Z,46.00
2018-11-05T16:45:35.295Z,12.57
2018-11-05T16:48:05.140Z,17.50
2018-11-05T16:50:35.039Z,16.73
2018-11-05T16:53:05.810Z,23.30
2018-11-05T16:55:35.698Z,25.27
2018-11-05T16:58:05.726Z,18.33
2018-11-05T17:00:35.957Z,34.17
2018-11-05T17:03:06.746Z,29.00
2018-11-05T17:05:36.692Z,30.63
2018-11-05T17:08:07.322Z,23.37
2018-11-05T17:10:37.384Z,34.73
2018-11-05T17:13:07.682Z,49.37
2018-11-05T17:15:38.375Z,20.93
2018-11-05T17:18:08.303Z,21.03
2018-11-05T17:20:38.194Z,20.90
2018-11-05T17:23:08.167Z,15.43
2018-11-05T17:25:38.059Z,18.67
2018-11-05T17:28:07.981Z,19.77
2018-11-05T17:30:38.258Z,16.93
2018-11-05T17:33:27.112Z,15.63
2018-11-05T17:35:57.568Z,23.60
2018-11-05T17:38:27.624Z,23.57
2018-11-05T17:40:57.651Z,23.67
2018-11-05T17:43:27.593Z,23.40
2018-11-05T17:45:57.462Z,21.97
2018-11-05T17:48:27.396Z,23.03
2018-11-05T17:50:57.836Z,17.50
2018-11-05T17:53:27.584Z,20.70
2018-11-05T17:55:57.471Z,24.70
2018-11-05T17:58:29.622Z,26.70
2018-11-05T18:00:59.520Z,24.47
2018-11-05T18:03:29.408Z,23.57
2018-11-05T18:06:00.098Z,23.53
2018-11-05T18:08:30.001Z,51.87
2018-11-05T18:10:59.924Z,25.90
2018-11-05T18:13:30.076Z,25.07
2018-11-05T18:16:00.061Z,27.43
2018-11-05T18:18:29.978Z,24.10
2018-11-05T18:21:00.774Z,26.60
2018-11-05T18:23:30.683Z,33.80
2018-11-05T18:26:00.585Z,31.80
2018-11-05T18:28:30.855Z,29.97
2018-11-05T18:33:31.036Z,25.40
2018-11-05T18:36:02.046Z,25.30
2018-11-05T18:38:31.929Z,41.40
2018-11-05T18:41:01.854Z,26.47
2018-11-05T18:43:32.675Z,24.57
2018-11-05T18:46:02.617Z,25.53
2018-11-05T18:48:32.768Z,24.93
2018-11-05T18:51:03.006Z,21.30
2018-11-05T18:53:32.951Z,24.60
2018-11-05T18:56:02.846Z,21.73
2018-11-05T18:58:33.090Z,22.33
2018-11-05T19:01:02.977Z,22.20
2018-11-05T19:03:33.069Z,23.93
2018-11-05T19:06:03.144Z,21.33
2018-11-05T19:08:33.974Z,22.33
2018-11-05T19:11:04.697Z,21.23
2018-11-05T19:13:34.628Z,21.43
2018-11-05T19:16:04.592Z,21.53
2018-11-05T19:18:34.679Z,20.30
2018-11-05T19:21:04.577Z,23.90
2018-11-05T19:23:34.655Z,20.10
2018-11-05T19:26:05.265Z,20.50
2018-11-05T19:28:35.279Z,20.43
2018-11-05T19:31:05.159Z,22.23
2018-11-05T19:33:35.687Z,23.00
2018-11-05T19:36:06.615Z,21.93
2018-11-05T19:38:36.562Z,23.17
2018-11-05T19:41:11.277Z,22.57
2018-11-05T19:43:41.143Z,27.10
2018-11-05T19:46:11.045Z,23.80
2018-11-05T19:48:41.219Z,28.77
2018-11-05T19:51:11.139Z,23.23
2018-11-05T19:53:41.315Z,23.70
2018-11-05T19:56:12.355Z,26.67
2018-11-05T19:58:42.410Z,26.27
2018-11-05T20:01:12.538Z,26.27
2018-11-05T20:03:43.092Z,25.63
2018-11-05T20:06:13.039Z,25.27
2018-11-05T20:08:43.055Z,27.00
2018-11-05T20:11:13.253Z,26.70
2018-11-05T20:13:43.287Z,27.03
2018-11-05T20:16:13.380Z,25.07
2018-11-05T20:18:45.590Z,24.93
2018-11-05T20:21:15.618Z,26.97
2018-11-05T20:23:45.823Z,25.67
2018-11-05T20:26:16.508Z,25.63
2018-11-05T20:28:46.662Z,26.20
2018-11-05T20:31:16.745Z,31.20
2018-11-05T20:33:49.862Z,27.23
2018-11-05T20:36:19.880Z,27.70
2018-11-05T20:38:50.014Z,28.23
2018-11-05T20:41:20.936Z,29.60
2018-11-05T20:43:51.007Z,29.10
2018-11-05T20:46:21.172Z,31.43
2018-11-05T20:48:52.514Z,37.53
2018-11-05T20:51:22.420Z,31.90
2018-11-05T20:53:52.489Z,30.50
2018-11-05T20:56:23.459Z,32.77
2018-11-05T20:58:53.696Z,32.97
2018-11-05T21:01:25.587Z,34.57
2018-11-05T21:03:57.509Z,33.70
2018-11-05T21:06:27.437Z,34.63
2018-11-05T21:08:57.653Z,33.73
2018-11-05T21:11:27.612Z,36.40
2018-11-05T21:13:57.510Z,40.97
2018-11-05T21:16:27.440Z,38.67
2018-11-05T21:18:57.873Z,38.30
2018-11-05T21:21:27.976Z,39.33
2018-11-05T21:23:58.083Z,42.57
2018-11-05T21:26:29.353Z,46.47
2018-11-05T21:28:59.397Z,44.87
2018-11-05T21:31:29.409Z,42.90
2018-11-05T21:36:29.795Z,45.00
2018-11-05T21:38:59.939Z,48.07
2018-11-05T21:41:30.341Z,42.43
2018-11-05T21:44:00.390Z,41.00
2018-11-05T21:46:30.544Z,42.67
2018-11-05T21:49:00.712Z,39.20
2018-11-05T21:51:30.759Z,41.97
2018-11-05T21:54:00.839Z,40.90
2018-11-05T21:56:30.962Z,39.33
2018-11-05T21:59:01.015Z,41.73
2018-11-05T22:01:31.152Z,40.10
2018-11-05T22:04:02.078Z,40.47
2018-11-05T22:06:32.045Z,41.27
2018-11-05T22:09:02.081Z,40.27
2018-11-05T22:11:32.413Z,41.27
2018-11-05T22:14:02.451Z,41.77
2018-11-05T22:16:32.584Z,42.10
2018-11-05T22:19:03.785Z,40.90
2018-11-05T22:21:33.874Z,41.17
2018-11-05T22:24:03.813Z,41.87
2018-11-05T22:26:34.051Z,42.50
2018-11-05T22:29:04.186Z,38.47
2018-11-05T22:31:34.231Z,38.37
2018-11-05T22:34:04.951Z,39.77
2018-11-05T22:36:35.007Z,38.57
2018-11-05T22:39:05.204Z,38.20
2018-11-05T22:41:35.218Z,41.33
2018-11-05T22:44:05.346Z,35.60
2018-11-05T22:46:35.441Z,36.13
2018-11-05T22:49:06.197Z,37.57
2018-11-05T22:51:36.231Z,38.70
2018-11-05T22:54:06.222Z,37.57
2018-11-05T22:56:37.014Z,36.57
2018-11-05T22:59:06.918Z,36.33
2018-11-05T23:01:57.248Z,39.10
2018-11-05T23:04:27.273Z,40.23
2018-11-05T23:06:57.165Z,36.50
2018-11-05T23:09:28.929Z,37.93
2018-11-05T23:11:58.804Z,36.30
2018-11-05T23:14:28.684Z,33.40
2018-11-05T23:16:58.914Z,35.10
2018-11-05T23:19:29.010Z,34.13
2018-11-05T23:21:59.055Z,33.97
2018-11-05T23:24:29.463Z,33.37
2018-11-05T23:26:59.529Z,32.60
2018-11-05T23:29:29.428Z,33.00
2018-11-05T23:31:59.550Z,28.57
2018-11-05T23:34:29.444Z,27.67
2018-11-05T23:36:59.359Z,27.20
2018-11-05T23:39:29.341Z,27.50
2018-11-05T23:41:59.529Z,26.93
2018-11-05T23:44:29.564Z,26.87
2018-11-05T23:47:00.611Z,28.37
2018-11-05T23:49:30.646Z,25.70
2018-11-05T23:52:00.767Z,26.40
2018-11-05T23:54:30.854Z,25.80
2018-11-05T23:57:01.070Z,25.17
2018-11-05T23:59:31.092Z,26.17
